Overton, Nevada Weather observations

Data are for observation ending at time listed.
 Day   Time    Ave.   Ave.  Ave.  Vector   Max.   Stn.    Total    Solar   Ave.  
  of    of     Air    Rel.  Wind   Wind    Wind   Baro.  Precip.   Rad.    Soil  
Year   Day     Temp.  Hum.  Speed  Dir.    Gust   Pres.                    Temp. 
2017   (PST)    F      %     mph   deg.    mph     mb.     in.     W/m2     F   
------------------------------------------------------------------------------
  20   12:00   48.9    77    9.9   150     17.4   952.4    0.00      85    47.3
  20   12:10   48.9    77    9.2   156     18.3   952.3    0.00      64    47.3
  20   12:20   48.8    77    8.2   152     17.2   952.1    0.00      50    47.4
  20   12:30   48.8    77    8.3   151     14.6   952.0    0.00      39    47.4
  20   12:40   48.7    76    7.6   162     13.3   951.8    0.00      36    47.4
  20   12:50   48.6    77    6.4   157     12.2   951.6    0.00      49    47.4
  20   13:00   48.6    78    6.0   152     12.3   951.4    0.00      61    47.4
  20   13:10   48.5    79    6.1   148     12.1   951.1    0.00      67    47.5
  20   13:20   48.3    80    4.9   151      9.4   951.0    0.00      31    47.6
  20   13:30   48.0    82    5.5   149     11.3   950.9    0.01      44    47.6
  20   13:40   47.9    83    6.4   154     12.1   950.8    0.00      77    47.7
  20   13:50   47.9    84    5.7   150     11.1   950.7    0.00      59    47.9
  20   14:00   48.0    84    6.5   145     12.7   950.6    0.00      68    47.9
  20   14:10   48.1    84    6.1   147     11.8   950.4    0.00     100    48.0
  20   14:20   48.1    85    4.2   132      9.9   950.2    0.00      67    48.2
  20   14:30   47.7    85    4.5   124      8.6   949.9    0.00      62    48.2
  20   14:40   47.4    85    3.8   116      7.7   949.8    0.00      61    48.3
  20   14:50   47.3    86    3.3   108      8.0   949.6    0.00      55    48.3
  20   15:00   47.3    87    2.4   109      5.8   949.2    0.00      57    48.3
  20   15:10   47.4    86    2.5   114      6.3   948.9    0.00      46    48.3
  20   15:20   47.5    86    2.4   137      5.4   948.8    0.00      18    48.4
  20   15:30   47.4    86    2.8   143      6.4   948.8    0.01      10    48.4
  20   15:40   47.2    87    2.5   139      5.2   948.7    0.01      10    48.2
  20   15:50   46.8    88    3.8   169      5.6   948.6    0.01      10    48.2
  20   16:00   46.5    90    3.5   159      5.4   948.5    0.01      10    48.1
  20   16:10   46.5    90    2.1   141      4.5   948.3    0.00      10    48.0
  20   16:20   46.6    90    2.1   121      4.6   948.2    0.01       8    48.0
  20   16:30   46.4    90    2.1    93      4.3   948.2    0.02       5    47.9
  20   16:40   46.0    91    2.5    94      5.6   948.0    0.01       3    47.8
  20   16:50   45.9    92    1.8   108      5.0   947.7    0.01       3    47.8
  20   17:00   46.0    92    2.0   125      7.7   947.4    0.01       3    47.7
  20   17:10   46.3    92    2.9   131      7.2   947.3    0.01       1    47.6
  20   17:20   46.5    92    1.8   136      4.7   947.2    0.00       0    47.6
  20   17:30   46.5    92    4.0   150      8.9   946.9    0.01       0    47.6
  20   17:40   47.1    89    5.4   141     11.6   946.8    0.00       0    47.5
  20   17:50   47.4    87    4.5   135      9.8   946.8    0.00       0    47.5
  20   18:00   47.3    86    5.8   130     13.5   946.5    0.00       0    47.5
  20   18:10   47.2    85    4.8   130     11.8   946.5    0.01       0    47.4
  20   18:20   47.1    85    3.8   140      8.7   946.5    0.01       0    47.4
  20   18:30   46.8    86    4.6   140      8.8   946.3    0.01       0    47.4
  20   18:40   47.0    86    4.5   134     11.3   946.2    0.01       0    47.3
  20   18:50   47.4    84    5.3   133     11.7   946.0    0.00       0    47.2
  20   19:00   47.7    82    4.9   127     11.6   945.8    0.00       0    47.2
  20   19:10   47.9    82    5.7   137     11.8   945.5    0.00       0    47.2
  20   19:20   48.5    80    6.3   141     14.0   945.3    0.00       0    47.1
  20   19:30   48.6    81    6.4   140     12.9   945.1    0.01       0    47.1
  20   19:40   48.5    80    5.7   133     14.4   944.9    0.00       0    47.1
  20   19:50   48.9    78    7.2   140     19.4   944.9    0.00       0    47.0
  20   20:00   49.6    75    8.8   148     18.9   944.9    0.00       0    47.0
  20   20:10   49.7    76    5.8   139     13.7   944.9    0.00       0    47.0
  20   20:20   49.4    78    4.5   122     11.6   944.9    0.00       0    47.0
  20   20:30   49.5    77    4.6   125     11.4   945.0    0.00       0    47.1
  20   20:40   49.7    76    5.2   133     10.8   945.0    0.00       0    47.1
  20   20:50   50.2    73    9.0   148     17.7   944.9    0.00       0    47.1
  20   21:00   50.5    73   11.0   154     19.5   944.8    0.00       0    47.1
  20   21:10   50.4    74    8.2   152     17.2   944.9    0.00       0    47.1
  20   21:20   50.2    75    6.8   144     13.2   945.0    0.00       0    47.1
  20   21:30   50.1    76    5.7   139     12.4   945.1    0.00       0    47.1
  20   21:40   50.0    76    5.1   140     11.2   945.1    0.00       0    47.1
  20   21:50   49.7    76    4.5   142     10.4   945.2    0.00       0    47.1
  20   22:00   49.6    77    4.8   147      9.3   945.2    0.00       0    47.0
  20   22:10   49.8    76    5.8   147     11.5   945.3    0.00       0    47.0
  20   22:20   50.0    75    4.5   143      9.9   945.4    0.00       0    47.0
  20   22:30   49.8    76    3.7   148      6.6   945.5    0.00       0    47.0
  20   22:40   49.6    77    3.5   138      8.3   945.5    0.00       0    47.0
  20   22:50   49.8    76    4.9   143     10.4   945.5    0.00       0    47.0
  20   23:00   49.8    77    4.5   135      9.4   945.3    0.00       0    46.9
  20   23:10   49.5    78    5.3   138     10.4   945.2    0.00       0    46.9
  20   23:20   49.7    77    5.7   142     11.8   944.9    0.00       0    46.8
  20   23:30   49.7    77    6.2   143     12.8   944.9    0.00       0    46.8
  20   23:40   49.7    77    7.1   148     12.9   944.9    0.00       0    46.7
  20   23:50   49.7    77    7.4   150     13.7   944.7    0.00       0    46.7
  21    0:00   49.7    76    8.8   154     14.8   944.7    0.00       0    46.6
  21    0:10   49.9    74    9.5   162     16.4   944.8    0.00       0    46.6
  21    0:20   49.9    72    7.2   165     12.2   944.9    0.00       0    46.5
  21    0:30   50.0    71    5.6   152     11.8   945.0    0.00       0    46.4
  21    0:40   49.5    72    3.4   134      8.0   945.2    0.00       0    46.4
  21    0:50   49.2    73    2.9   124      5.8   945.3    0.00       0    46.4
  21    1:00   48.3    75    3.3   154      6.8   945.5    0.00       0    46.3
  21    1:10   48.2    75    2.4   138      5.4   945.7    0.00       0    46.2
  21    1:20   48.0    75    1.7   123      4.4   945.8    0.00       0    46.2
  21    1:30   47.6    77    1.1   131      3.1   946.0    0.00       0    46.2
  21    1:40   47.2    78    1.7   184      3.3   946.2    0.00       0    46.2
  21    1:50   47.2    77    2.4   164      3.7   946.3    0.00       0    46.2
  21    2:00   47.4    76    1.6   146      3.0   946.4    0.00       0    46.2
  21    2:10   47.4    76    1.0   153      2.7   946.6    0.00       0    46.2
  21    2:20   46.7    78    0.9   310      1.9   946.8    0.00       0    46.2
  21    2:30   46.0    80    0.0   285      0.4   946.8    0.00       0    46.1
  21    2:40   45.3    82    0.5   341      1.5   946.8    0.00       0    46.1
  21    2:50   44.7    84    0.0   302      1.2   946.9    0.00       0    46.0
  21    3:00   44.0    85    1.4   341      2.9   947.0    0.00       0    45.9
  21    3:10   43.0    86    0.9   342      2.8   947.0    0.00       0    45.7
  21    3:20   42.7    88    1.9   306      3.3   947.1    0.00       0    45.5
  21    3:30   43.3    88    1.0   319      3.2   947.1    0.00       0    45.4
  21    3:40   43.2    88    2.9   310      5.3   947.2    0.00       0    45.3
  21    3:50   42.8    88    2.4   282      5.0   947.4    0.00       0    45.2
  21    4:00   42.8    88    1.7   273      3.9   947.6    0.00       0    45.1
  21    4:10   43.0    87    1.6   277      3.6   947.8    0.00       0    45.0
  21    4:20   43.1    86    1.3   282      2.6   947.9    0.00       0    45.0
  21    4:30   42.8    86    0.8   307      2.6   948.0    0.00       0    45.0
  21    4:40   42.5    87    0.6   230      1.8   948.1    0.00       0    45.0
  21    4:50   42.7    87    1.1   254      2.0   948.3    0.00       0    45.0
  21    5:00   42.8    86    0.5   240      2.3   948.5    0.00       0    44.9
  21    5:10   42.3    87    0.2   240      0.8   948.8    0.00       0    44.8
  21    5:20   42.5    87    0.2   101      2.3   949.0    0.00       0    44.8
  21    5:30   42.5    87    1.1   116      2.7   949.1    0.00       0    44.9
  21    5:40   42.3    88    0.8   357      2.4   949.5    0.00       0    44.9
  21    5:50   41.5    88    2.1   354      2.5   949.8    0.00       0    44.8
  21    6:00   41.2    90    2.5   321      4.5   950.2    0.00       0    44.7
  21    6:10   41.5    90    2.1   318      4.8   950.6    0.00       0    44.7
  21    6:20   41.6    90    1.3   342      2.1   950.8    0.00       0    44.6
  21    6:30   41.9    89    1.4   237      2.3   951.0    0.00       0    44.6
  21    6:40   41.9    88    1.8   232      2.8   951.2    0.00       0    44.5
  21    6:50   41.9    88    0.3   240      1.3   951.4    0.00       1    44.5
  21    7:00   41.4    88    1.1   357      2.3   951.7    0.00       5    44.5
  21    7:10   40.9    89    2.0   339      3.3   952.1    0.00      11    44.4
  21    7:20   40.9    90    1.3   306      2.3   952.3    0.00      19    44.4
  21    7:30   41.2    90    0.2   298      1.8   952.6    0.00      33    44.3
  21    7:40   41.5    90    0.1   299      0.9   952.8    0.00      37    44.4
  21    7:50   42.0    90    0.0     0      0.0   953.1    0.00      47    44.4
  21    8:00   42.4    89    0.3   215      2.0   953.3    0.00      69    44.5
  21    8:10   42.8    89    1.1   185      2.3   953.5    0.00      82    44.7
  21    8:20   43.5    88    0.6   267      2.6   953.9    0.00      74    44.9
  21    8:30   44.2    87    1.1   304      2.7   954.2    0.00     117    45.0
  21    8:40   46.0    84    0.7   296      2.6   954.6    0.00     253    45.3
  21    8:50   46.8    78    1.7   313      4.2   954.9    0.00     143    45.9
  21    9:00   46.9    77    2.3   303      4.2   955.4    0.00     219    46.2
  21    9:10   48.0    73    2.1   321      3.6   955.8    0.00     327    46.6
  21    9:20   49.2    69    1.9   334      4.4   956.2    0.00     340    47.0
  21    9:30   50.2    67    1.4   312      4.1   956.6    0.00     359    47.3
  21    9:40   51.0    65    2.4   318      4.3   957.0    0.00     378    47.6
  21    9:50   52.3    61    0.9   280      3.1   957.5    0.00     396    47.8
  21   10:00   52.8    59    0.9   286      3.0   957.9    0.00     414    47.9
  21   10:10   53.7    57    0.9    37      3.6   958.2    0.00     431    47.9
  21   10:20   53.9    55    1.6    85      3.9   958.4    0.00     444    47.9
  21   10:30   54.6    52    1.9   165      4.3   958.6    0.00     457    47.9
  21   10:40   54.8    52    2.7   167      6.1   958.8    0.00     469    48.0
  21   10:50   55.4    50    2.8   146     10.0   959.1    0.00     482    48.1
  21   11:00   55.7    48    4.1   128      9.6   959.3    0.00     491    48.2
  21   11:10   55.4    50    4.0   208      7.3   959.5    0.00     498    48.3
  21   11:20   55.8    49    3.5   196      6.5   959.6    0.00     505    48.3
  21   11:30   56.3    46    2.0   180      4.9   959.5    0.00     511    48.4
  21   11:40   56.8    44    2.5   202      6.5   959.5    0.00     516    48.5
  21   11:50   56.9    42    1.8   180      3.6   959.7    0.00     517    48.5

Return to Overton, Nevada graphs page.


Western Regional Climate Center,wrcc@dri.edu